createdAt,value
2019-03-28T00:02:14.160Z,3.40
2019-03-28T00:04:42.648Z,3.40
2019-03-28T00:07:11.111Z,3.40
2019-03-28T00:09:39.529Z,3.40
2019-03-28T00:12:07.932Z,3.40
2019-03-28T00:14:36.358Z,3.40
2019-03-28T00:17:04.837Z,3.40
2019-03-28T00:19:33.248Z,3.40
2019-03-28T00:22:01.711Z,3.40
2019-03-28T00:24:31.754Z,3.40
2019-03-28T00:27:00.164Z,3.40
2019-03-28T00:29:28.725Z,3.30
2019-03-28T00:31:58.873Z,3.40
2019-03-28T00:34:27.202Z,3.30
2019-03-28T00:36:55.690Z,3.40
2019-03-28T00:39:24.157Z,3.30
2019-03-28T00:41:52.566Z,3.30
2019-03-28T00:44:21.135Z,3.30
2019-03-28T00:46:49.621Z,3.30
2019-03-28T00:49:18.160Z,3.30
2019-03-28T00:51:46.735Z,3.30
2019-03-28T00:54:15.138Z,3.30
2019-03-28T00:56:47.128Z,3.30
2019-03-28T00:59:13.742Z,3.30
2019-03-28T01:01:42.155Z,3.30
2019-03-28T01:04:10.674Z,3.20
2019-03-28T01:06:39.141Z,3.20
2019-03-28T01:09:09.391Z,3.30
2019-03-28T01:11:37.862Z,3.30
2019-03-28T01:14:06.274Z,3.20
2019-03-28T01:16:34.747Z,3.10
2019-03-28T01:19:03.281Z,3.10
2019-03-28T01:21:31.766Z,3.00
2019-03-28T01:24:00.238Z,2.90
2019-03-28T01:26:28.734Z,2.80
2019-03-28T01:28:57.213Z,2.70
2019-03-28T01:31:25.626Z,2.60
2019-03-28T01:33:54.097Z,2.50
2019-03-28T01:36:22.502Z,2.40
2019-03-28T01:38:50.910Z,2.30
2019-03-28T01:41:19.389Z,2.30
2019-03-28T01:43:47.814Z,2.30
2019-03-28T01:46:16.214Z,2.20
2019-03-28T01:48:44.617Z,2.20
2019-03-28T01:51:13.044Z,2.10
2019-03-28T01:53:41.511Z,2.00
2019-03-28T01:56:09.914Z,1.90
2019-03-28T01:58:38.321Z,1.80
2019-03-28T02:01:06.738Z,1.70
2019-03-28T02:03:35.210Z,1.60
2019-03-28T02:06:03.861Z,1.60
2019-03-28T02:08:32.266Z,1.50
2019-03-28T02:11:00.674Z,1.40
2019-03-28T02:13:29.151Z,1.40
2019-03-28T02:15:57.621Z,1.30
2019-03-28T02:18:26.040Z,1.30
2019-03-28T02:20:54.583Z,1.30
2019-03-28T02:23:23.070Z,1.30
2019-03-28T02:25:51.609Z,1.20
2019-03-28T02:28:20.006Z,1.10
2019-03-28T02:30:48.493Z,1.10
2019-03-28T02:33:16.901Z,1.00
2019-03-28T02:35:45.378Z,1.00
2019-03-28T02:38:13.861Z,1.00
2019-03-28T02:40:42.710Z,0.90
2019-03-28T02:43:11.352Z,1.00
2019-03-28T02:45:39.818Z,1.00
2019-03-28T02:48:08.216Z,0.90
2019-03-28T02:50:37.726Z,0.90
2019-03-28T02:53:06.414Z,0.90
2019-03-28T02:55:34.823Z,0.80
2019-03-28T02:58:03.302Z,0.80
2019-03-28T03:00:31.641Z,0.70
2019-03-28T03:03:00.037Z,0.80
2019-03-28T03:05:28.437Z,0.80
2019-03-28T03:07:56.852Z,0.70
2019-03-28T03:10:25.330Z,0.70
2019-03-28T03:12:54.040Z,0.70
2019-03-28T03:15:22.507Z,0.70
2019-03-28T03:17:53.037Z,0.70
2019-03-28T03:20:21.509Z,0.60
2019-03-28T03:22:49.928Z,0.60
2019-03-28T03:25:18.398Z,0.60
2019-03-28T03:27:57.828Z,0.60
2019-03-28T03:30:16.959Z,0.50
2019-03-28T03:32:45.343Z,0.40
2019-03-28T03:35:14.918Z,0.30
2019-03-28T03:37:43.415Z,0.20
2019-03-28T03:40:12.795Z,0.10
2019-03-28T03:42:41.199Z,0.10
2019-03-28T03:45:09.816Z,0.00
2019-03-28T03:47:38.283Z,0.00
2019-03-28T03:50:07.674Z,0.00
2019-03-28T03:52:36.030Z,0.00
2019-03-28T03:55:06.460Z,0.00
2019-03-28T03:57:34.870Z,-0.10
2019-03-28T04:00:05.736Z,0.00
2019-03-28T04:02:34.187Z,0.00
2019-03-28T04:05:02.691Z,-0.10
2019-03-28T04:07:31.171Z,-0.10
2019-03-28T04:09:59.647Z,-0.20
2019-03-28T04:12:28.333Z,-0.10
2019-03-28T04:14:56.912Z,-0.20
2019-03-28T04:17:25.403Z,-0.10
2019-03-28T04:19:53.974Z,-0.10
2019-03-28T04:22:22.456Z,-0.10
2019-03-28T04:24:51.039Z,0.00
2019-03-28T04:27:19.524Z,0.10
2019-03-28T04:29:47.992Z,0.20
2019-03-28T04:32:16.471Z,0.20
2019-03-28T04:34:44.950Z,0.10
2019-03-28T04:37:13.429Z,0.10
2019-03-28T04:39:42.478Z,0.00
2019-03-28T04:42:11.205Z,-0.10
2019-03-28T04:44:39.684Z,0.00
2019-03-28T04:47:08.164Z,0.00
2019-03-28T04:49:36.748Z,0.00
2019-03-28T04:52:05.326Z,0.10
2019-03-28T04:54:33.813Z,0.10
2019-03-28T04:57:02.284Z,0.10
2019-03-28T04:59:30.763Z,0.20
2019-03-28T05:02:03.234Z,0.20
2019-03-28T05:04:29.363Z,0.20
2019-03-28T05:06:57.821Z,0.30
2019-03-28T05:09:26.369Z,0.20
2019-03-28T05:11:54.904Z,0.20
2019-03-28T05:14:23.387Z,0.10
2019-03-28T05:16:51.857Z,0.20
2019-03-28T05:19:20.339Z,0.00
2019-03-28T05:21:48.818Z,0.00
2019-03-28T05:24:17.297Z,0.00
2019-03-28T05:26:45.773Z,-0.10
2019-03-28T05:29:14.767Z,-0.10
2019-03-28T05:31:43.224Z,0.00
2019-03-28T05:34:13.533Z,0.10
2019-03-28T05:36:42.147Z,0.30
2019-03-28T05:39:12.367Z,0.30
2019-03-28T05:41:40.847Z,0.30
2019-03-28T05:44:09.327Z,0.30
2019-03-28T05:46:38.361Z,0.30
2019-03-28T05:49:06.999Z,0.40
2019-03-28T05:51:35.479Z,0.40
2019-03-28T05:54:05.841Z,0.50
2019-03-28T05:56:33.970Z,0.60
2019-03-28T05:59:10.850Z,0.80
2019-03-28T06:01:32.595Z,0.70
2019-03-28T06:04:01.026Z,0.70
2019-03-28T06:06:29.430Z,0.80
2019-03-28T06:08:57.910Z,0.80
2019-03-28T06:11:26.426Z,1.00
2019-03-28T06:13:54.874Z,1.00
2019-03-28T06:16:23.365Z,1.00
2019-03-28T06:18:51.828Z,1.00
2019-03-28T06:21:20.242Z,1.00
2019-03-28T06:23:48.714Z,1.00
2019-03-28T06:26:17.133Z,1.10
2019-03-28T06:28:45.586Z,1.10
2019-03-28T06:31:15.728Z,1.10
2019-03-28T06:33:44.170Z,1.30
2019-03-28T06:36:12.570Z,1.30
2019-03-28T06:38:40.984Z,1.30
2019-03-28T06:41:09.382Z,1.30
2019-03-28T06:43:37.862Z,1.30
2019-03-28T06:46:06.273Z,1.40
2019-03-28T06:48:34.746Z,1.50
2019-03-28T06:51:03.219Z,1.60
2019-03-28T06:53:31.711Z,1.70
2019-03-28T06:56:00.123Z,1.70
2019-03-28T06:58:28.662Z,1.80
2019-03-28T07:00:57.142Z,1.90
2019-03-28T07:03:25.546Z,1.80
2019-03-28T07:05:53.962Z,1.80
2019-03-28T07:08:22.361Z,1.80
2019-03-28T07:10:50.775Z,1.80
2019-03-28T07:13:19.337Z,1.90
2019-03-28T07:15:47.744Z,2.10
2019-03-28T07:18:16.217Z,2.10
2019-03-28T07:20:44.698Z,2.30
2019-03-28T07:23:13.119Z,2.30
2019-03-28T07:25:41.519Z,2.30
2019-03-28T07:28:09.935Z,2.30
2019-03-28T07:30:40.226Z,2.40
2019-03-28T07:33:08.650Z,2.40
2019-03-28T07:35:37.118Z,2.40
2019-03-28T07:38:05.527Z,2.60
2019-03-28T07:40:34.072Z,2.60
2019-03-28T07:43:02.621Z,2.60
2019-03-28T07:45:34.185Z,2.80
2019-03-28T07:48:01.146Z,2.80
2019-03-28T07:50:29.627Z,2.80
2019-03-28T07:52:58.037Z,2.80
2019-03-28T07:55:26.543Z,2.90
2019-03-28T07:57:54.923Z,3.00
2019-03-28T08:00:23.402Z,3.00
2019-03-28T08:02:51.807Z,3.00
2019-03-28T08:05:20.221Z,3.10
2019-03-28T08:07:48.702Z,3.10
2019-03-28T08:10:17.111Z,3.20
2019-03-28T08:12:45.587Z,3.40
2019-03-28T08:15:14.122Z,3.60
2019-03-28T08:17:42.534Z,3.60
2019-03-28T08:20:11.478Z,3.50
2019-03-28T08:22:39.878Z,3.80
2019-03-28T08:25:11.651Z,3.80
2019-03-28T08:27:38.509Z,3.90
2019-03-28T08:30:18.160Z,4.00
2019-03-28T08:32:39.824Z,4.20
2019-03-28T08:35:07.998Z,4.30
2019-03-28T08:37:37.190Z,4.40
2019-03-28T08:40:08.822Z,4.60
2019-03-28T08:42:37.308Z,4.50
2019-03-28T08:45:07.184Z,4.60
2019-03-28T08:47:35.722Z,4.70
2019-03-28T08:50:06.165Z,4.80
2019-03-28T08:52:34.562Z,4.80
2019-03-28T08:55:03.438Z,5.00
2019-03-28T08:57:31.838Z,5.20
2019-03-28T09:00:00.443Z,5.30
2019-03-28T09:02:28.919Z,5.40
2019-03-28T09:04:57.566Z,5.70
2019-03-28T09:07:26.094Z,5.90
2019-03-28T09:09:54.546Z,6.00
2019-03-28T09:12:23.977Z,6.00
2019-03-28T09:14:52.419Z,6.00
2019-03-28T09:17:23.736Z,6.10
2019-03-28T09:19:50.946Z,6.10
2019-03-28T09:22:19.354Z,6.30
2019-03-28T09:24:47.831Z,6.30
2019-03-28T09:27:16.278Z,6.40
2019-03-28T09:29:44.651Z,6.30
2019-03-28T09:32:13.122Z,6.00
2019-03-28T09:34:41.525Z,5.90
2019-03-28T09:37:09.932Z,5.90
2019-03-28T09:39:38.436Z,6.10
2019-03-28T09:42:06.838Z,6.10
2019-03-28T09:44:35.345Z,6.10
2019-03-28T09:47:03.748Z,6.10
2019-03-28T09:49:32.157Z,6.10
2019-03-28T09:52:00.566Z,6.30
2019-03-28T09:54:29.030Z,6.50
2019-03-28T09:56:57.434Z,6.50
2019-03-28T09:59:25.830Z,6.60
2019-03-28T10:01:54.318Z,6.60
2019-03-28T10:04:22.717Z,6.80
2019-03-28T10:06:51.103Z,7.00
2019-03-28T10:09:19.586Z,7.10
2019-03-28T10:11:48.000Z,7.20
2019-03-28T10:14:16.401Z,7.30
2019-03-28T10:16:45.039Z,7.40
2019-03-28T10:19:13.521Z,7.60
2019-03-28T10:21:41.986Z,7.60
2019-03-28T10:24:10.948Z,7.80
2019-03-28T10:26:39.990Z,7.70
2019-03-28T10:29:08.395Z,7.90
2019-03-28T10:31:36.951Z,8.10
2019-03-28T10:34:05.428Z,8.20
2019-03-28T10:36:34.070Z,8.30
2019-03-28T10:39:02.714Z,8.30
2019-03-28T10:41:31.229Z,8.40
2019-03-28T10:43:59.621Z,8.70
2019-03-28T10:46:28.030Z,8.90
2019-03-28T10:48:56.559Z,8.80
2019-03-28T10:51:25.029Z,8.50
2019-03-28T10:53:53.455Z,8.70
2019-03-28T10:56:23.416Z,8.70
2019-03-28T10:58:51.970Z,8.90
2019-03-28T11:01:36.070Z,9.00
2019-03-28T11:03:50.486Z,9.20
2019-03-28T11:06:18.892Z,9.20
2019-03-28T11:08:47.362Z,9.30
2019-03-28T11:11:15.844Z,9.40
2019-03-28T11:13:44.246Z,9.50
2019-03-28T11:16:14.977Z,9.60
2019-03-28T11:18:42.766Z,9.90
2019-03-28T11:21:11.174Z,10.10
2019-03-28T11:23:39.650Z,10.20
2019-03-28T11:26:08.064Z,10.30
2019-03-28T11:28:36.570Z,10.10
2019-03-28T11:31:05.046Z,10.20
2019-03-28T11:33:33.522Z,10.40
2019-03-28T11:36:01.937Z,10.60
2019-03-28T11:38:30.338Z,10.70
2019-03-28T11:40:58.776Z,10.70
2019-03-28T11:43:27.318Z,10.70
2019-03-28T11:45:55.793Z,10.80
2019-03-28T11:48:24.446Z,10.90
2019-03-28T11:50:52.977Z,11.10
2019-03-28T11:53:21.444Z,11.20
2019-03-28T11:55:49.915Z,11.20
2019-03-28T11:58:18.386Z,11.30
2019-03-28T12:00:47.847Z,11.30
2019-03-28T12:03:16.292Z,11.30
2019-03-28T12:05:44.667Z,11.50
2019-03-28T12:08:13.130Z,11.70
2019-03-28T12:10:41.691Z,11.80
2019-03-28T12:13:10.175Z,11.80
2019-03-28T12:15:38.575Z,12.00
2019-03-28T12:18:07.047Z,11.90
2019-03-28T12:20:35.453Z,12.00
2019-03-28T12:23:03.999Z,11.90
2019-03-28T12:25:32.430Z,11.90
2019-03-28T12:28:00.840Z,12.00
2019-03-28T12:30:29.322Z,11.80
2019-03-28T12:32:57.803Z,11.80
2019-03-28T12:35:26.213Z,11.50
2019-03-28T12:37:54.604Z,11.50
2019-03-28T12:40:23.023Z,11.50
2019-03-28T12:42:51.498Z,11.60
2019-03-28T12:45:19.910Z,11.50
2019-03-28T12:47:48.303Z,11.50
2019-03-28T12:50:16.780Z,11.40
2019-03-28T12:52:45.235Z,11.30
2019-03-28T12:55:13.646Z,11.30
2019-03-28T12:57:42.132Z,11.20
2019-03-28T13:00:11.570Z,11.30
2019-03-28T13:02:40.058Z,11.50
2019-03-28T13:05:08.802Z,11.50
2019-03-28T13:07:37.220Z,11.70
2019-03-28T13:10:10.543Z,11.90
2019-03-28T13:12:39.078Z,11.90
2019-03-28T13:15:07.562Z,11.90
2019-03-28T13:17:35.964Z,11.90
2019-03-28T13:20:07.015Z,11.90
2019-03-28T13:22:35.485Z,12.00
2019-03-28T13:25:05.936Z,12.10
2019-03-28T13:27:34.853Z,12.00
2019-03-28T13:30:05.289Z,12.10
2019-03-28T13:32:41.588Z,12.30
2019-03-28T13:35:06.312Z,12.40
2019-03-28T13:37:34.729Z,12.40
2019-03-28T13:40:04.693Z,12.30
2019-03-28T13:42:33.106Z,12.10
2019-03-28T13:45:01.522Z,12.00
2019-03-28T13:47:30.001Z,11.90
2019-03-28T13:49:58.412Z,11.90
2019-03-28T13:52:26.896Z,12.00
2019-03-28T13:54:55.375Z,11.90
2019-03-28T13:57:25.167Z,12.00
2019-03-28T13:59:53.660Z,12.00
2019-03-28T14:02:22.147Z,12.10
2019-03-28T14:04:50.565Z,12.00
2019-03-28T14:07:19.000Z,11.90
2019-03-28T14:09:47.468Z,11.90
2019-03-28T14:12:15.952Z,11.80
2019-03-28T14:14:44.372Z,11.70
2019-03-28T14:17:12.785Z,11.60
2019-03-28T14:19:41.277Z,11.60
2019-03-28T14:22:09.758Z,11.50
2019-03-28T14:24:38.177Z,11.60
2019-03-28T14:27:06.669Z,11.60
2019-03-28T14:29:35.173Z,11.60
2019-03-28T14:32:03.671Z,11.70
2019-03-28T14:34:32.172Z,11.70
2019-03-28T14:37:00.592Z,11.90
2019-03-28T14:39:29.084Z,12.10
2019-03-28T14:41:57.583Z,12.20
2019-03-28T14:44:26.077Z,12.20
2019-03-28T14:46:54.493Z,12.30
2019-03-28T14:49:22.954Z,12.20
2019-03-28T14:51:51.504Z,12.20
2019-03-28T14:54:19.913Z,12.40
2019-03-28T14:56:48.325Z,12.30
2019-03-28T14:59:16.743Z,12.30
2019-03-28T15:01:45.324Z,12.20
2019-03-28T15:04:13.887Z,12.10
2019-03-28T15:06:42.297Z,12.20
2019-03-28T15:09:10.804Z,12.20
2019-03-28T15:11:39.300Z,12.30
2019-03-28T15:14:07.791Z,12.40
2019-03-28T15:16:37.471Z,12.50
2019-03-28T15:19:06.388Z,12.70
2019-03-28T15:21:34.871Z,12.50
2019-03-28T15:24:03.281Z,12.60
2019-03-28T15:26:31.866Z,12.60
2019-03-28T15:29:00.335Z,12.60
2019-03-28T15:31:28.909Z,12.40
2019-03-28T15:33:57.461Z,12.00
2019-03-28T15:36:25.986Z,11.90
2019-03-28T15:38:55.321Z,11.70
2019-03-28T15:41:23.812Z,11.50
2019-03-28T15:43:52.231Z,11.50
2019-03-28T15:46:20.667Z,11.40
2019-03-28T15:48:49.248Z,11.30
2019-03-28T15:51:17.664Z,11.30
2019-03-28T15:53:46.217Z,11.40
2019-03-28T15:56:14.700Z,11.50
2019-03-28T15:58:43.116Z,11.40
2019-03-28T16:01:11.744Z,11.30
2019-03-28T16:03:52.347Z,11.20
2019-03-28T16:06:12.301Z,11.00
2019-03-28T16:08:40.728Z,11.00
2019-03-28T16:11:09.154Z,11.00
2019-03-28T16:13:37.799Z,10.80
2019-03-28T16:16:06.449Z,10.70
2019-03-28T16:18:34.860Z,10.50
2019-03-28T16:21:03.272Z,10.40
2019-03-28T16:23:31.688Z,10.30
2019-03-28T16:26:00.175Z,10.30
2019-03-28T16:28:28.678Z,10.10
2019-03-28T16:30:57.106Z,10.10
2019-03-28T16:33:25.592Z,10.00
2019-03-28T16:35:54.003Z,9.90
2019-03-28T16:38:22.422Z,9.90
2019-03-28T16:40:50.824Z,9.90
2019-03-28T16:43:19.322Z,9.90
2019-03-28T16:45:47.792Z,9.80
2019-03-28T16:48:16.328Z,9.70
2019-03-28T16:50:44.815Z,9.60
2019-03-28T16:53:13.226Z,9.60
2019-03-28T16:55:41.631Z,9.40
2019-03-28T16:58:10.119Z,9.40
2019-03-28T17:00:38.614Z,9.40
2019-03-28T17:03:07.702Z,9.30
2019-03-28T17:05:36.413Z,9.30
2019-03-28T17:08:04.899Z,9.10
2019-03-28T17:10:41.657Z,9.10
2019-03-28T17:13:10.072Z,9.00
2019-03-28T17:15:38.572Z,9.00
2019-03-28T17:18:07.055Z,8.90
2019-03-28T17:20:35.547Z,8.90
2019-03-28T17:23:03.952Z,8.90
2019-03-28T17:25:32.372Z,8.80
2019-03-28T17:28:00.832Z,8.80
2019-03-28T17:30:29.269Z,8.70
2019-03-28T17:32:57.692Z,8.80
2019-03-28T17:35:26.181Z,8.70
2019-03-28T17:37:54.676Z,8.70
2019-03-28T17:40:23.274Z,8.70
2019-03-28T17:42:51.806Z,8.60
2019-03-28T17:45:20.285Z,8.50
2019-03-28T17:47:48.704Z,8.40
2019-03-28T17:50:17.620Z,8.40
2019-03-28T17:52:46.374Z,8.30
2019-03-28T17:55:19.500Z,8.20
2019-03-28T17:57:45.855Z,8.30
2019-03-28T18:00:14.225Z,8.40
2019-03-28T18:02:42.815Z,8.30
2019-03-28T18:05:15.267Z,8.40
2019-03-28T18:07:41.617Z,8.40
2019-03-28T18:10:09.994Z,8.30
2019-03-28T18:12:39.628Z,8.30
2019-03-28T18:15:08.193Z,8.20
2019-03-28T18:17:36.600Z,8.20
2019-03-28T18:20:08.008Z,8.10
2019-03-28T18:22:36.582Z,8.10
2019-03-28T18:25:08.138Z,8.10
2019-03-28T18:27:36.584Z,8.00
2019-03-28T18:30:06.648Z,7.90
2019-03-28T18:32:35.137Z,7.80
2019-03-28T18:35:07.699Z,7.70
2019-03-28T18:37:35.785Z,7.50
2019-03-28T18:40:06.140Z,7.50
2019-03-28T18:42:34.627Z,7.50
2019-03-28T18:45:03.720Z,7.60
2019-03-28T18:47:32.201Z,7.70
2019-03-28T18:50:03.441Z,7.70
2019-03-28T18:52:30.788Z,7.80
2019-03-28T18:54:59.212Z,7.70
2019-03-28T18:57:27.696Z,7.70
2019-03-28T18:59:56.122Z,7.70
2019-03-28T19:02:24.613Z,7.60
2019-03-28T19:04:53.004Z,7.60
2019-03-28T19:07:21.458Z,7.60
2019-03-28T19:09:49.884Z,7.50
2019-03-28T19:12:18.300Z,7.40
2019-03-28T19:14:46.717Z,7.40
2019-03-28T19:17:15.219Z,7.40
2019-03-28T19:19:43.810Z,7.30
2019-03-28T19:22:12.407Z,7.20
2019-03-28T19:24:40.821Z,7.20
2019-03-28T19:27:09.240Z,7.20
2019-03-28T19:29:37.724Z,7.10
2019-03-28T19:32:06.137Z,7.00
2019-03-28T19:34:34.628Z,7.00
2019-03-28T19:37:03.105Z,7.00
2019-03-28T19:39:32.960Z,7.00
2019-03-28T19:42:04.294Z,6.90
2019-03-28T19:44:31.513Z,6.90
2019-03-28T19:47:00.001Z,6.80
2019-03-28T19:49:28.544Z,6.70
2019-03-28T19:51:56.984Z,6.60
2019-03-28T19:54:25.368Z,6.60
2019-03-28T19:56:57.169Z,6.50
2019-03-28T19:59:23.989Z,6.50
2019-03-28T20:01:52.536Z,6.40
2019-03-28T20:04:20.966Z,6.30
2019-03-28T20:06:50.218Z,6.30
2019-03-28T20:09:18.761Z,6.20
2019-03-28T20:11:47.237Z,6.20
2019-03-28T20:14:15.869Z,6.20
2019-03-28T20:16:44.465Z,6.20
2019-03-28T20:19:12.961Z,6.10
2019-03-28T20:21:41.361Z,6.10
2019-03-28T20:24:09.767Z,6.00
2019-03-28T20:26:38.212Z,6.00
2019-03-28T20:29:06.726Z,5.90
2019-03-28T20:31:35.110Z,5.90
2019-03-28T20:34:03.813Z,5.80
2019-03-28T20:36:38.495Z,5.80
2019-03-28T20:39:04.323Z,5.70
2019-03-28T20:41:32.513Z,5.70
2019-03-28T20:44:01.048Z,5.60
2019-03-28T20:46:29.546Z,5.60
2019-03-28T20:48:58.008Z,5.50
2019-03-28T20:51:26.630Z,5.50
2019-03-28T20:53:55.400Z,5.50
2019-03-28T20:56:23.879Z,5.50
2019-03-28T20:58:52.280Z,5.50
2019-03-28T21:01:20.764Z,5.50
2019-03-28T21:03:49.769Z,5.40
2019-03-28T21:06:19.573Z,5.40
2019-03-28T21:08:48.165Z,5.40
2019-03-28T21:11:16.712Z,5.30
2019-03-28T21:13:45.165Z,5.30
2019-03-28T21:16:13.664Z,5.30
2019-03-28T21:18:42.144Z,5.30
2019-03-28T21:21:10.624Z,5.20
2019-03-28T21:23:39.076Z,5.20
2019-03-28T21:26:07.480Z,5.10
2019-03-28T21:28:46.401Z,5.10
2019-03-28T21:31:06.022Z,5.00
2019-03-28T21:33:34.503Z,5.00
2019-03-28T21:36:02.980Z,5.00
2019-03-28T21:38:31.469Z,4.90
2019-03-28T21:40:59.956Z,4.90
2019-03-28T21:43:28.433Z,4.90
2019-03-28T21:45:56.839Z,4.80
2019-03-28T21:48:25.295Z,4.80
2019-03-28T21:50:53.863Z,4.70
2019-03-28T21:53:22.453Z,4.70
2019-03-28T21:55:55.557Z,4.70
2019-03-28T21:58:20.992Z,4.70
2019-03-28T22:00:49.476Z,4.70
2019-03-28T22:03:17.896Z,4.70
2019-03-28T22:05:46.377Z,4.70
2019-03-28T22:08:14.773Z,4.60
2019-03-28T22:10:43.478Z,4.60
2019-03-28T22:13:12.432Z,4.60
2019-03-28T22:15:41.009Z,4.60
2019-03-28T22:18:09.448Z,4.60
2019-03-28T22:20:38.092Z,4.60
2019-03-28T22:23:06.501Z,4.60
2019-03-28T22:25:34.896Z,4.50
2019-03-28T22:28:03.299Z,4.50
2019-03-28T22:30:31.714Z,4.50
2019-03-28T22:33:00.120Z,4.50
2019-03-28T22:35:28.601Z,4.40
2019-03-28T22:37:57.025Z,4.40
2019-03-28T22:40:25.495Z,4.50
2019-03-28T22:42:53.915Z,4.40
2019-03-28T22:45:22.393Z,4.40
2019-03-28T22:47:50.876Z,4.40
2019-03-28T22:50:19.301Z,4.40
2019-03-28T22:52:49.649Z,4.40
2019-03-28T22:55:18.012Z,4.40
2019-03-28T22:57:46.482Z,4.40
2019-03-28T23:00:14.961Z,4.40
2019-03-28T23:02:43.436Z,4.40
2019-03-28T23:05:11.929Z,4.40
2019-03-28T23:07:42.467Z,4.40
2019-03-28T23:10:11.567Z,4.40
2019-03-28T23:12:40.044Z,4.40
2019-03-28T23:15:08.884Z,4.40
2019-03-28T23:17:55.660Z,4.40
2019-03-28T23:20:24.157Z,4.40
2019-03-28T23:22:52.550Z,4.40
2019-03-28T23:25:21.370Z,4.40
2019-03-28T23:27:49.767Z,4.40
2019-03-28T23:30:18.166Z,4.30
2019-03-28T23:32:46.739Z,4.30
2019-03-28T23:35:17.378Z,4.30
2019-03-28T23:37:45.793Z,4.30
2019-03-28T23:40:14.322Z,4.20
2019-03-28T23:42:43.862Z,4.20
2019-03-28T23:45:12.745Z,4.30
2019-03-28T23:47:41.926Z,4.30
2019-03-28T23:50:10.317Z,4.30
2019-03-28T23:52:38.720Z,4.30
2019-03-28T23:55:07.785Z,4.30
2019-03-28T23:57:36.188Z,4.30
